Time;durP1;ratioP1;P1;durP2;ratioP2;P2;SDS_P1;SDS_P2;PMS_P1;PMS_P2;Temp;Humidity;BMP_temperature;BMP_pressure;BME280_temperature;BME280_humidity;BME280_pressure;Samples;Min_cycle;Max_cycle;Signal;HPM_P1;HPM_P2
2022/05/21 00:01:26;;;;;;;1.30;1.20;;;17.20;99.90;;;;;;4987890;28;20206;-74
2022/05/21 00:03:54;;;;;;;1.53;1.13;;;17.10;99.90;;;;;;4987893;28;20638;-73
2022/05/21 00:06:21;;;;;;;1.20;1.20;;;17.10;99.90;;;;;;4991055;28;20619;-73
2022/05/21 00:08:47;;;;;;;1.63;1.10;;;17.10;99.90;;;;;;5007397;28;20213;-74
2022/05/21 00:11:15;;;;;;;1.23;1.23;;;17.10;99.90;;;;;;5040695;28;20236;-74
2022/05/21 00:13:42;;;;;;;1.20;1.20;;;17.10;99.90;;;;;;5046771;28;20286;-74
2022/05/21 00:16:09;;;;;;;2.70;1.30;;;17.10;99.90;;;;;;5046938;28;20261;-74
2022/05/21 00:18:35;;;;;;;1.33;1.10;;;17.00;99.90;;;;;;5046923;28;20554;-74
2022/05/21 00:21:02;;;;;;;1.40;1.30;;;17.00;99.90;;;;;;5046782;28;20212;-74
2022/05/21 00:23:31;;;;;;;1.23;1.20;;;17.00;99.90;;;;;;5046756;28;20216;-74
2022/05/21 00:25:59;;;;;;;1.83;1.10;;;17.00;99.90;;;;;;5046682;28;20204;-74
2022/05/21 00:28:28;;;;;;;1.60;1.50;;;17.00;99.90;;;;;;5046677;28;20294;-74
2022/05/21 00:30:55;;;;;;;2.07;1.70;;;16.90;99.90;;;;;;5049889;28;20747;-73
2022/05/21 00:33:22;;;;;;;1.37;1.37;;;17.00;99.90;;;;;;5050484;28;20270;-74
2022/05/21 00:35:49;;;;;;;1.50;1.40;;;16.90;99.90;;;;;;5050227;28;20208;-74
2022/05/21 00:38:16;;;;;;;1.63;1.53;;;16.90;99.90;;;;;;5050129;28;20238;-74
2022/05/21 00:40:44;;;;;;;1.70;1.40;;;16.80;99.90;;;;;;5050142;28;20230;-74
2022/05/21 00:43:38;;;;;;;1.27;1.17;;;16.90;99.90;;;;;;5050162;28;20214;-74
2022/05/21 00:46:10;;;;;;;1.80;1.57;;;16.80;99.90;;;;;;5030471;28;20251;-74
2022/05/21 00:48:38;;;;;;;1.40;1.30;;;16.70;99.90;;;;;;5048039;28;20205;-75
2022/05/21 00:51:15;;;;;;;1.30;1.30;;;16.60;99.90;;;;;;5049764;28;20825;-75
2022/05/21 00:53:44;;;;;;;2.00;1.73;;;16.70;99.90;;;;;;5050010;28;20195;-74
2022/05/21 00:56:12;;;;;;;1.50;1.40;;;16.50;99.90;;;;;;5050011;28;20208;-74
2022/05/21 01:01:27;;;;;;;1.50;1.40;;;16.50;99.90;;;;;;5049720;28;20549;-74
2022/05/21 01:03:53;;;;;;;1.20;1.20;;;16.60;99.90;;;;;;5049735;28;20232;-74
2022/05/21 01:06:20;;;;;;;1.27;1.27;;;16.50;99.90;;;;;;5049300;28;20612;-74
2022/05/21 01:08:47;;;;;;;1.60;1.30;;;16.50;99.90;;;;;;5049763;28;20277;-74
2022/05/21 01:11:17;;;;;;;2.00;1.80;;;16.40;99.90;;;;;;5049430;28;20236;-74
2022/05/21 01:13:48;;;;;;;1.50;1.40;;;16.40;99.90;;;;;;5049509;28;20205;-73
2022/05/21 01:16:15;;;;;;;1.37;1.20;;;16.40;99.90;;;;;;5049483;28;20704;-74
2022/05/21 01:18:42;;;;;;;8.03;1.47;;;16.40;99.90;;;;;;5049117;28;20728;-74
2022/05/21 01:21:08;;;;;;;3.43;1.50;;;16.40;99.90;;;;;;5046027;28;20208;-74
2022/05/21 01:23:37;;;;;;;1.27;1.27;;;16.30;99.90;;;;;;5029749;28;20209;-74
2022/05/21 01:26:19;;;;;;;1.43;1.30;;;16.10;99.90;;;;;;5042432;28;20215;-74
2022/05/21 01:28:45;;;;;;;1.47;1.37;;;16.10;99.90;;;;;;5049056;28;20658;-74
2022/05/21 01:31:12;;;;;;;1.40;1.40;;;16.10;99.90;;;;;;5049560;28;20216;-74
2022/05/21 01:33:41;;;;;;;1.77;1.67;;;16.00;99.90;;;;;;5049159;28;20257;-74
2022/05/21 01:36:09;;;;;;;1.30;1.30;;;16.00;99.90;;;;;;5049310;28;20211;-74
2022/05/21 01:38:38;;;;;;;1.70;1.60;;;16.00;99.90;;;;;;5049230;28;20657;-75
2022/05/21 01:41:09;;;;;;;1.73;1.63;;;16.00;99.90;;;;;;5048316;28;20200;-75
2022/05/21 01:46:21;;;;;;;1.57;1.57;;;16.00;99.90;;;;;;5049385;28;20203;-75
2022/05/21 01:48:48;;;;;;;1.60;1.50;;;16.00;99.90;;;;;;5048969;28;20265;-75
2022/05/21 01:51:14;;;;;;;3.80;1.53;;;15.90;99.90;;;;;;5048783;28;20246;-75
2022/05/21 01:53:43;;;;;;;2.10;1.50;;;15.90;99.90;;;;;;5049204;28;20250;-75
2022/05/21 01:56:11;;;;;;;1.37;1.30;;;15.90;99.90;;;;;;5048917;28;20224;-75
2022/05/21 01:58:39;;;;;;;2.17;1.60;;;15.90;99.90;;;;;;5048779;28;20228;-75
2022/05/21 02:01:09;;;;;;;1.47;1.37;;;15.90;99.90;;;;;;5048795;28;20207;-75
2022/05/21 02:03:36;;;;;;;1.50;1.50;;;16.00;99.90;;;;;;5048597;28;20353;-75
2022/05/21 02:06:08;;;;;;;3.10;1.43;;;15.90;99.90;;;;;;5048415;28;20216;-75
2022/05/21 02:08:35;;;;;;;1.50;1.50;;;15.80;99.90;;;;;;5048738;28;20281;-75
2022/05/21 02:11:07;;;;;;;1.73;1.63;;;15.90;99.90;;;;;;5048323;28;20254;-76
2022/05/21 02:13:35;;;;;;;1.70;1.60;;;15.90;99.90;;;;;;5048532;28;20192;-75
2022/05/21 02:16:02;;;;;;;1.73;1.63;;;15.90;99.90;;;;;;5048656;28;20232;-75
2022/05/21 02:18:28;;;;;;;1.40;1.30;;;15.90;99.90;;;;;;5047596;28;20278;-75
2022/05/21 02:20:55;;;;;;;2.77;1.70;;;15.90;99.90;;;;;;5048171;28;20212;-75
2022/05/21 02:23:23;;;;;;;3.10;2.00;;;15.80;99.90;;;;;;5048449;28;20215;-76
2022/05/21 02:25:49;;;;;;;1.77;1.70;;;15.70;99.90;;;;;;5048031;28;20543;-73
2022/05/21 02:28:18;;;;;;;2.10;2.00;;;15.70;99.90;;;;;;5048389;28;20262;-73
2022/05/21 02:30:45;;;;;;;1.90;1.80;;;15.70;99.90;;;;;;5048301;28;20274;-72
2022/05/21 02:33:12;;;;;;;1.60;1.50;;;15.60;99.90;;;;;;5048282;28;20208;-72
2022/05/21 02:35:38;;;;;;;2.23;1.60;;;15.60;99.90;;;;;;5048103;28;20235;-72
2022/05/21 02:40:49;;;;;;;2.07;1.57;;;15.40;99.90;;;;;;5048075;28;20191;-72
2022/05/21 02:43:17;;;;;;;1.87;1.50;;;15.40;99.90;;;;;;5048009;28;20214;-72
2022/05/21 02:45:44;;;;;;;1.63;1.53;;;15.40;99.90;;;;;;5048204;28;20208;-72
2022/05/21 02:48:11;;;;;;;3.63;1.40;;;15.40;99.90;;;;;;5048011;28;20212;-72
2022/05/21 02:50:37;;;;;;;1.50;1.40;;;15.40;99.90;;;;;;5047270;28;20717;-72
2022/05/21 02:53:07;;;;;;;1.80;1.70;;;15.40;99.90;;;;;;5047875;28;20266;-72
2022/05/21 02:55:34;;;;;;;3.53;2.00;;;15.50;99.90;;;;;;5047559;28;20777;-75
2022/05/21 02:58:01;;;;;;;2.67;1.70;;;15.40;99.90;;;;;;5047958;28;20200;-75
2022/05/21 03:00:31;;;;;;;3.60;2.03;;;15.20;99.90;;;;;;5047564;28;20277;-75
2022/05/21 03:02:59;;;;;;;1.87;1.40;;;15.10;99.90;;;;;;5047520;28;20220;-75
2022/05/21 03:05:27;;;;;;;3.40;1.73;;;15.00;99.90;;;;;;5047232;28;20667;-74
2022/05/21 03:07:54;;;;;;;4.47;1.63;;;14.90;99.90;;;;;;5047895;28;20311;-75
2022/05/21 03:10:23;;;;;;;1.90;1.80;;;14.90;99.90;;;;;;5047139;28;20282;-74
2022/05/21 03:12:51;;;;;;;1.70;1.60;;;14.90;99.90;;;;;;5046904;28;20763;-74
2022/05/21 03:15:19;;;;;;;1.80;1.70;;;14.80;99.90;;;;;;5047050;28;20925;-76
2022/05/21 03:17:47;;;;;;;2.20;1.73;;;14.80;99.90;;;;;;5047122;28;20553;-75
2022/05/21 03:20:16;;;;;;;3.03;1.53;;;15.00;99.90;;;;;;5047382;28;20612;-75
2022/05/21 03:22:42;;;;;;;2.07;1.50;;;14.90;99.90;;;;;;5047531;28;20576;-73
2022/05/21 03:25:10;;;;;;;3.00;1.60;;;14.90;99.90;;;;;;5047526;28;20616;-73
2022/05/21 03:27:37;;;;;;;1.23;1.23;;;14.80;99.90;;;;;;5047178;28;20614;-73
2022/05/21 03:30:05;;;;;;;2.13;1.70;;;14.80;99.90;;;;;;5047189;28;20262;-73
2022/05/21 03:32:32;;;;;;;7.17;1.70;;;14.80;99.90;;;;;;5047130;28;20204;-73
2022/05/21 03:35:00;;;;;;;1.73;1.20;;;14.80;99.90;;;;;;5047096;28;20232;-72
2022/05/21 03:37:27;;;;;;;1.50;1.40;;;14.80;99.90;;;;;;5046928;28;20262;-73
2022/05/21 03:39:53;;;;;;;6.20;1.40;;;14.70;99.90;;;;;;5046635;28;20733;-73
2022/05/21 03:42:20;;;;;;;1.80;1.23;;;14.70;99.90;;;;;;5046822;28;20569;-73
2022/05/21 03:44:47;;;;;;;4.87;1.67;;;14.70;99.90;;;;;;5047267;28;20621;-73
2022/05/21 03:47:14;;;;;;;1.50;1.40;;;14.60;99.90;;;;;;5046993;28;20212;-73
2022/05/21 03:49:41;;;;;;;2.13;1.40;;;14.50;99.90;;;;;;5047168;28;20204;-73
2022/05/21 03:52:09;;;;;;;1.30;1.20;;;14.40;99.90;;;;;;5047015;28;20250;-73
2022/05/21 03:54:36;;;;;;;2.33;1.20;;;14.30;99.90;;;;;;5046988;28;20207;-73
2022/05/21 03:57:04;;;;;;;1.60;1.50;;;14.40;99.90;;;;;;5047168;28;20219;-73
2022/05/21 03:59:30;;;;;;;1.50;1.40;;;14.20;99.90;;;;;;5047031;28;20232;-73
2022/05/21 04:01:57;;;;;;;4.93;1.20;;;14.30;99.90;;;;;;5046955;28;20290;-73
2022/05/21 04:04:24;;;;;;;1.13;1.00;;;14.30;99.90;;;;;;5047803;28;20212;-73
2022/05/21 04:06:50;;;;;;;1.80;1.10;;;14.30;99.90;;;;;;5050391;28;20728;-73
2022/05/21 04:09:18;;;;;;;2.20;1.33;;;14.40;99.90;;;;;;5050794;28;20254;-72
2022/05/21 04:11:45;;;;;;;4.03;1.60;;;14.20;99.90;;;;;;5050240;28;20212;-73
2022/05/21 04:14:14;;;;;;;4.57;1.30;;;14.20;99.90;;;;;;5050762;28;20277;-73
2022/05/21 04:16:41;;;;;;;1.43;1.30;;;14.20;99.90;;;;;;5050314;28;20228;-73
2022/05/21 04:19:10;;;;;;;4.77;1.30;;;14.20;99.90;;;;;;5050606;28;21131;-73
2022/05/21 04:21:37;;;;;;;1.13;1.10;;;14.10;99.90;;;;;;5050231;28;20220;-73
2022/05/21 04:24:04;;;;;;;1.40;1.30;;;14.00;99.90;;;;;;5050513;28;20614;-74
2022/05/21 04:26:32;;;;;;;1.10;1.10;;;14.10;99.90;;;;;;5050515;28;20731;-74
2022/05/21 04:28:59;;;;;;;1.60;1.50;;;14.10;99.90;;;;;;5050254;28;20743;-74
2022/05/21 04:31:26;;;;;;;2.27;1.30;;;14.10;99.90;;;;;;5050850;28;20656;-74
2022/05/21 04:33:52;;;;;;;1.43;1.33;;;14.10;99.90;;;;;;5050341;28;20666;-73
2022/05/21 04:36:19;;;;;;;1.20;1.20;;;14.10;99.90;;;;;;5050401;28;20224;-74
2022/05/21 04:38:46;;;;;;;1.57;1.47;;;14.10;99.90;;;;;;5050115;28;20208;-73
2022/05/21 04:41:13;;;;;;;2.00;1.60;;;14.20;99.90;;;;;;5050468;28;20204;-74
2022/05/21 04:43:41;;;;;;;2.97;1.50;;;14.20;99.90;;;;;;5049894;28;20261;-73
2022/05/21 04:46:08;;;;;;;1.43;1.33;;;14.20;99.90;;;;;;5050492;28;20287;-73
2022/05/21 04:48:35;;;;;;;3.50;1.40;;;14.10;99.90;;;;;;5048642;28;20254;-74
2022/05/21 04:51:07;;;;;;;1.60;1.50;;;13.90;99.90;;;;;;5049964;28;20743;-74
2022/05/21 04:53:34;;;;;;;2.30;1.50;;;13.90;99.90;;;;;;5050135;28;20218;-74
2022/05/21 04:56:01;;;;;;;3.50;1.60;;;13.90;99.90;;;;;;5050189;28;20309;-74
2022/05/21 04:58:28;;;;;;;2.50;1.20;;;14.00;99.90;;;;;;5049980;28;20204;-74
2022/05/21 05:00:56;;;;;;;4.20;1.40;;;14.00;99.90;;;;;;5050094;28;20626;-72
2022/05/21 05:03:23;;;;;;;1.40;1.40;;;13.90;99.90;;;;;;5049782;28;20220;-72
2022/05/21 05:05:50;;;;;;;2.87;1.40;;;13.90;99.90;;;;;;5049977;28;20262;-72
2022/05/21 05:08:19;;;;;;;2.00;1.50;;;13.80;99.90;;;;;;5050067;28;20208;-73
2022/05/21 05:10:49;;;;;;;2.53;1.80;;;13.60;99.90;;;;;;5049479;28;20239;-73
2022/05/21 05:13:16;;;;;;;1.50;1.40;;;13.60;99.90;;;;;;5050072;28;20208;-73
2022/05/21 05:15:45;;;;;;;1.87;1.60;;;13.50;99.90;;;;;;5049359;28;20820;-73
2022/05/21 05:18:15;;;;;;;2.47;1.40;;;13.50;99.90;;;;;;5049516;28;20204;-73
2022/05/21 05:20:42;;;;;;;2.37;1.47;;;13.50;99.90;;;;;;5049491;28;20218;-73
2022/05/21 05:23:10;;;;;;;1.93;1.77;;;13.50;99.90;;;;;;5049795;28;20204;-73
2022/05/21 05:25:37;;;;;;;4.90;1.70;;;13.50;99.90;;;;;;5049617;28;20208;-73
2022/05/21 05:28:05;;;;;;;2.33;1.53;;;13.60;99.90;;;;;;5049380;28;20239;-73
2022/05/21 05:30:32;;;;;;;3.77;1.87;;;13.70;99.90;;;;;;5049329;28;20200;-73
2022/05/21 05:32:59;;;;;;;1.57;1.47;;;13.80;99.90;;;;;;5049716;28;20212;-72
2022/05/21 05:35:27;;;;;;;2.73;1.70;;;13.80;99.90;;;;;;5048852;28;20224;-72
2022/05/21 05:37:54;;;;;;;1.43;1.30;;;13.80;99.90;;;;;;5048780;28;20262;-73
2022/05/21 05:40:22;;;;;;;2.23;1.50;;;13.80;99.90;;;;;;5049192;28;20200;-72
2022/05/21 05:42:49;;;;;;;1.67;1.50;;;13.70;99.90;;;;;;5049116;28;20206;-73
2022/05/21 05:45:17;;;;;;;2.37;2.10;;;13.70;99.90;;;;;;5049217;28;20803;-73
2022/05/21 05:47:44;;;;;;;8.27;1.60;;;13.70;99.90;;;;;;5048536;28;20214;-75
2022/05/21 05:50:11;;;;;;;4.67;1.77;;;13.80;99.90;;;;;;5048805;28;20211;-74
2022/05/21 05:52:39;;;;;;;2.20;1.63;;;13.90;99.90;;;;;;5048834;28;20211;-73
2022/05/21 05:55:06;;;;;;;3.03;1.50;;;14.00;99.90;;;;;;5048824;28;20208;-71
2022/05/21 05:57:33;;;;;;;1.40;1.30;;;14.00;99.90;;;;;;5048301;28;20200;-72
2022/05/21 05:59:59;;;;;;;5.87;2.27;;;14.10;99.90;;;;;;5046698;28;20274;-71
2022/05/21 06:05:16;;;;;;;4.07;1.87;;;14.30;99.90;;;;;;5046506;28;20599;-72
2022/05/21 06:07:46;;;;;;;3.10;1.70;;;14.50;99.90;;;;;;5046376;28;20199;-71
2022/05/21 06:10:15;;;;;;;7.80;2.90;;;14.50;99.90;;;;;;5046548;28;20240;-71
2022/05/21 06:12:42;;;;;;;5.50;2.47;;;14.50;99.90;;;;;;5046383;28;20978;-70
2022/05/21 06:15:10;;;;;;;3.60;1.77;;;14.40;99.90;;;;;;5046197;28;21107;-71
2022/05/21 06:17:37;;;;;;;8.37;2.70;;;14.40;99.90;;;;;;5046246;28;20204;-71
2022/05/21 06:20:06;;;;;;;1.80;1.70;;;14.40;99.90;;;;;;5046297;28;20704;-71
2022/05/21 06:22:33;;;;;;;3.07;2.30;;;14.40;99.90;;;;;;5046098;28;20212;-71
2022/05/21 06:25:01;;;;;;;2.37;1.90;;;14.40;99.90;;;;;;5046204;28;20204;-69
2022/05/21 06:27:28;;;;;;;2.83;2.00;;;14.40;99.90;;;;;;5045460;28;20208;-70
2022/05/21 06:29:56;;;;;;;2.50;2.30;;;14.30;99.90;;;;;;5046104;28;20815;-71
2022/05/21 06:32:22;;;;;;;2.27;2.07;;;14.40;99.90;;;;;;5046703;28;20212;-72
2022/05/21 06:34:49;;;;;;;3.00;1.70;;;14.40;99.90;;;;;;5046531;28;20219;-74
2022/05/21 06:37:16;;;;;;;3.20;1.87;;;14.30;99.90;;;;;;5044973;28;20990;-71
2022/05/21 06:39:43;;;;;;;1.90;1.80;;;14.20;99.90;;;;;;5045536;28;20658;-71
2022/05/21 06:42:12;;;;;;;3.07;1.67;;;14.20;99.90;;;;;;5045809;28;20204;-72
2022/05/21 06:44:39;;;;;;;2.70;1.60;;;14.10;99.90;;;;;;5061609;28;20207;-71
2022/05/21 06:47:06;;;;;;;3.53;1.60;;;14.10;99.90;;;;;;5061823;28;20755;-71
2022/05/21 06:49:33;;;;;;;2.57;1.50;;;14.00;99.90;;;;;;5047032;28;20262;-71
2022/05/21 06:52:00;;;;;;;3.03;1.60;;;14.00;99.90;;;;;;5047436;28;20670;-71
2022/05/21 06:54:27;;;;;;;1.70;1.40;;;14.10;99.90;;;;;;5048065;28;20277;-71
2022/05/21 06:56:54;;;;;;;3.13;1.60;;;14.20;99.90;;;;;;5047706;28;20252;-71
2022/05/21 06:59:22;;;;;;;1.93;1.50;;;14.40;99.90;;;;;;5047351;28;20212;-71
2022/05/21 07:01:49;;;;;;;2.07;1.43;;;14.30;99.90;;;;;;5047784;28;20236;-71
2022/05/21 07:04:16;;;;;;;2.23;1.30;;;14.20;99.90;;;;;;5047485;28;20650;-71
2022/05/21 07:09:27;;;;;;;1.43;1.30;;;14.30;99.90;;;;;;5027431;28;20666;-71
2022/05/21 07:11:54;;;;;;;1.20;1.20;;;14.20;99.90;;;;;;5027986;28;20271;-71
2022/05/21 07:14:22;;;;;;;1.60;1.50;;;14.30;99.90;;;;;;5027793;28;20243;-71
2022/05/21 07:16:50;;;;;;;1.93;1.40;;;14.40;99.90;;;;;;5030435;28;20314;-71
2022/05/21 07:19:17;;;;;;;1.87;1.00;;;14.30;99.90;;;;;;5047353;28;20207;-71
2022/05/21 07:21:43;;;;;;;3.90;1.73;;;14.20;99.90;;;;;;5047323;28;20204;-71
2022/05/21 07:24:10;;;;;;;1.87;1.30;;;14.20;99.90;;;;;;5047742;28;20293;-71
2022/05/21 07:26:36;;;;;;;2.43;1.43;;;14.40;99.90;;;;;;5047647;28;20262;-71
2022/05/21 07:29:04;;;;;;;1.60;1.50;;;14.30;99.90;;;;;;5047621;28;20626;-71
2022/05/21 07:31:32;;;;;;;5.50;1.50;;;14.30;99.90;;;;;;5047786;28;20215;-71
2022/05/21 07:33:58;;;;;;;1.97;1.77;;;14.40;99.90;;;;;;5047539;28;20238;-71
2022/05/21 07:36:25;;;;;;;1.50;1.40;;;14.50;99.90;;;;;;5047290;28;20285;-71
2022/05/21 07:38:51;;;;;;;2.63;1.80;;;14.60;99.90;;;;;;5047322;28;20208;-71
2022/05/21 07:41:18;;;;;;;1.83;1.60;;;14.60;99.90;;;;;;5051391;28;20208;-71
2022/05/21 07:43:45;;;;;;;1.70;1.60;;;14.70;99.90;;;;;;5051387;28;20208;-71
2022/05/21 07:46:11;;;;;;;2.20;1.40;;;14.90;99.90;;;;;;5051452;28;20290;-71
2022/05/21 07:48:40;;;;;;;3.43;1.97;;;15.10;99.90;;;;;;5050932;28;20204;-71
2022/05/21 07:51:08;;;;;;;1.30;1.20;;;15.20;99.90;;;;;;5049584;28;20196;-72
2022/05/21 07:53:38;;;;;;;2.00;1.80;;;15.30;99.90;;;;;;5051302;28;20428;-72
2022/05/21 07:56:11;;;;;;;2.27;1.83;;;15.40;99.90;;;;;;5050939;28;20231;-72
2022/05/21 07:58:38;;;;;;;1.67;1.57;;;15.40;99.90;;;;;;5049967;28;20200;-72
2022/05/21 08:01:10;;;;;;;2.30;1.60;;;15.50;99.90;;;;;;5050938;28;20204;-72
2022/05/21 08:03:37;;;;;;;2.27;1.60;;;15.70;99.90;;;;;;5050688;28;20318;-72
2022/05/21 08:06:12;;;;;;;3.43;1.90;;;15.70;99.90;;;;;;5050533;28;20208;-72
2022/05/21 08:08:38;;;;;;;2.23;1.80;;;15.80;99.90;;;;;;5050392;28;20246;-72
2022/05/21 08:11:08;;;;;;;1.70;1.60;;;15.90;99.90;;;;;;5040705;28;20231;-72
2022/05/21 08:13:35;;;;;;;2.53;1.50;;;15.90;99.90;;;;;;5050490;28;20214;-72
2022/05/21 08:16:02;;;;;;;1.80;1.40;;;15.90;99.90;;;;;;5050615;28;20208;-72
2022/05/21 08:18:29;;;;;;;1.97;1.50;;;16.00;99.90;;;;;;5050602;28;20658;-72
2022/05/21 08:20:56;;;;;;;1.73;1.63;;;16.10;99.90;;;;;;5050400;28;20208;-72
2022/05/21 08:28:52;;;;;;;3.00;1.50;;;16.20;99.90;;;;;;5050120;28;20227;-72
2022/05/21 08:31:19;;;;;;;2.27;1.63;;;16.30;99.90;;;;;;5050489;28;20204;-73
2022/05/21 08:33:46;;;;;;;1.83;1.60;;;16.50;99.90;;;;;;5050454;28;20204;-72
2022/05/21 08:36:12;;;;;;;2.00;1.50;;;16.50;99.90;;;;;;5050242;28;20232;-72
2022/05/21 08:38:41;;;;;;;5.40;1.50;;;16.50;99.90;;;;;;5050567;28;20204;-72
2022/05/21 08:41:13;;;;;;;3.83;1.87;;;16.50;99.90;;;;;;5050323;28;20745;-73
2022/05/21 08:43:51;;;;;;;4.40;1.60;;;16.50;99.90;;;;;;5049007;28;20196;-72
2022/05/21 08:46:31;;;;;;;3.00;2.00;;;16.20;99.90;;;;;;5050457;28;20255;-72
2022/05/21 08:49:02;;;;;;;2.10;1.70;;;16.00;99.90;;;;;;5030426;28;20200;-72
2022/05/21 08:51:33;;;;;;;2.87;1.90;;;15.80;99.90;;;;;;5034986;28;20649;-72
2022/05/21 08:54:03;;;;;;;2.30;2.10;;;15.60;99.90;;;;;;5050080;28;20193;-72
2022/05/21 08:56:30;;;;;;;2.50;2.20;;;15.20;99.90;;;;;;5049628;28;20263;-72
2022/05/21 08:59:03;;;;;;;2.63;2.27;;;15.10;99.90;;;;;;5049837;28;20230;-72
2022/05/21 09:01:30;;;;;;;2.10;1.90;;;14.80;99.90;;;;;;5050218;28;20619;-72
2022/05/21 09:03:59;;;;;;;2.60;2.33;;;14.80;99.90;;;;;;5049828;28;20666;-72
2022/05/21 09:06:37;;;;;;;3.07;1.93;;;14.80;99.90;;;;;;5049630;28;20208;-72
2022/05/21 09:09:17;;;;;;;2.47;2.27;;;15.00;99.90;;;;;;5029985;28;20197;-72
2022/05/21 09:11:48;;;;;;;2.60;2.40;;;15.00;99.90;;;;;;5044165;28;20236;-72
2022/05/21 09:14:17;;;;;;;3.60;2.23;;;15.00;99.90;;;;;;5049593;28;20757;-72
2022/05/21 09:16:58;;;;;;;2.70;2.50;;;15.00;99.90;;;;;;5049769;28;20281;-72
2022/05/21 09:19:27;;;;;;;4.47;2.73;;;15.00;99.90;;;;;;5049516;28;20769;-72
2022/05/21 09:21:59;;;;;;;4.20;2.63;;;15.00;99.90;;;;;;5049670;28;20235;-72
2022/05/21 09:24:40;;;;;;;2.80;2.60;;;14.90;99.90;;;;;;5049438;28;20666;-72
2022/05/21 09:27:22;;;;;;;2.77;2.57;;;14.90;99.90;;;;;;5049455;28;20192;-72
2022/05/21 09:29:52;;;;;;;3.67;2.70;;;14.80;99.90;;;;;;5049315;28;20641;-72
2022/05/21 09:32:21;;;;;;;3.30;2.63;;;14.60;99.90;;;;;;5049730;28;20205;-72
2022/05/21 09:35:00;;;;;;;7.27;3.10;;;14.60;99.90;;;;;;5049440;28;20212;-72
2022/05/21 09:37:30;;;;;;;3.87;2.90;;;14.80;99.90;;;;;;5049349;28;20228;-72
2022/05/21 09:39:58;;;;;;;3.37;2.70;;;14.90;99.90;;;;;;5049344;28;20214;-72
2022/05/21 09:45:26;;;;;;;3.07;2.80;;;14.90;99.90;;;;;;5048951;28;20273;-72
2022/05/21 09:47:54;;;;;;;3.47;3.17;;;15.00;99.90;;;;;;5044500;28;20204;-72
2022/05/21 09:50:24;;;;;;;3.40;3.10;;;15.10;99.90;;;;;;5049504;28;20258;-72
2022/05/21 09:52:51;;;;;;;3.43;3.13;;;15.00;99.90;;;;;;5049085;28;20270;-72
2022/05/21 09:55:23;;;;;;;4.53;3.70;;;15.20;99.90;;;;;;5049059;28;20204;-72
2022/05/21 09:57:50;;;;;;;5.07;4.00;;;15.20;99.90;;;;;;5049018;28;20228;-72
2022/05/21 10:00:22;;;;;;;4.87;4.47;;;15.40;99.90;;;;;;5049130;28;20204;-72
2022/05/21 10:02:52;;;;;;;6.33;5.83;;;15.50;99.90;;;;;;5048168;28;20258;-69
2022/05/21 10:05:24;;;;;;;5.63;5.17;;;15.70;99.90;;;;;;5048776;28;20212;-69
2022/05/21 10:10:59;;;;;;;7.70;6.23;;;15.80;99.90;;;;;;5048378;28;20239;-70
2022/05/21 10:13:30;;;;;;;6.80;6.20;;;16.00;99.90;;;;;;5048815;28;20201;-70
2022/05/21 10:16:00;;;;;;;5.87;5.30;;;16.00;99.90;;;;;;5048457;28;20550;-70
2022/05/21 10:18:33;;;;;;;6.20;5.67;;;16.20;99.90;;;;;;5048642;28;20243;-70
2022/05/21 10:21:08;;;;;;;4.90;4.43;;;16.40;99.90;;;;;;5048280;28;20196;-70
2022/05/21 10:23:41;;;;;;;5.83;5.30;;;16.60;99.90;;;;;;5048127;28;20605;-70
2022/05/21 10:26:44;;;;;;;6.70;4.90;;;17.00;99.90;;;;;;5048446;28;20197;-70
2022/05/21 10:29:35;;;;;;;5.87;5.33;;;17.20;99.90;;;;;;5048025;28;20654;-71
2022/05/21 10:32:14;;;;;;;5.87;5.23;;;17.00;99.90;;;;;;5048441;28;20207;-70
2022/05/21 10:34:49;;;;;;;5.50;5.00;;;17.00;99.90;;;;;;5048094;28;20251;-70
2022/05/21 10:37:35;;;;;;;7.53;4.93;;;17.00;99.90;;;;;;5047995;28;20740;-71
2022/05/21 10:40:19;;;;;;;4.97;4.50;;;17.30;99.90;;;;;;5048232;28;20265;-71
2022/05/21 10:43:08;;;;;;;4.97;4.57;;;17.40;99.90;;;;;;5048126;28;20246;-71
2022/05/21 10:45:40;;;;;;;4.30;3.90;;;17.40;99.90;;;;;;5047504;28;20234;-72
2022/05/21 10:48:27;;;;;;;6.10;4.60;;;17.40;99.90;;;;;;5048048;28;20204;-72
2022/05/21 10:50:59;;;;;;;4.03;3.70;;;17.10;99.90;;;;;;5033842;28;20683;-72
2022/05/21 10:53:44;;;;;;;4.40;4.03;;;17.10;99.90;;;;;;5048028;28;20250;-71
2022/05/21 10:56:23;;;;;;;4.30;3.90;;;17.00;99.90;;;;;;5047722;28;20196;-71
2022/05/21 10:59:04;;;;;;;4.77;4.37;;;16.90;99.90;;;;;;5047610;28;20281;-72
2022/05/21 11:01:38;;;;;;;4.17;3.83;;;16.90;99.90;;;;;;5047423;28;20803;-72
2022/05/21 11:04:25;;;;;;;4.10;3.70;;;17.00;99.90;;;;;;5047846;28;20655;-72
2022/05/21 11:07:12;;;;;;;4.47;4.07;;;17.20;99.90;;;;;;5047528;28;20615;-71
2022/05/21 11:09:46;;;;;;;3.87;3.30;;;17.20;99.90;;;;;;5047242;28;20247;-71
2022/05/21 11:12:17;;;;;;;5.57;3.90;;;17.10;99.90;;;;;;5047681;28;20196;-71
2022/05/21 11:14:50;;;;;;;5.83;3.70;;;17.20;99.90;;;;;;5046975;28;20639;-71
2022/05/21 11:17:31;;;;;;;3.90;3.40;;;17.00;99.90;;;;;;5046752;28;20596;-71
2022/05/21 11:20:04;;;;;;;4.50;3.33;;;16.90;99.90;;;;;;5047844;28;20192;-71
2022/05/21 11:22:40;;;;;;;4.43;3.50;;;16.90;99.90;;;;;;5047305;28;20200;-71
2022/05/21 11:25:13;;;;;;;5.90;3.90;;;16.90;99.90;;;;;;5047607;28;20254;-71
2022/05/21 11:27:46;;;;;;;4.30;3.90;;;16.90;99.90;;;;;;5047211;28;20200;-71
2022/05/21 11:30:18;;;;;;;4.50;4.00;;;17.00;99.90;;;;;;5047402;28;20246;-71
2022/05/21 11:38:30;;;;;;;4.73;3.67;;;17.50;99.90;;;;;;5047333;28;20386;-71
2022/05/21 11:44:55;;;;;;;5.40;4.20;;;17.80;99.90;;;;;;5046198;28;20278;-71
2022/05/21 11:46:49;;;;;;;3.70;3.03;;;18.00;99.90;;;;;;5044015;28;20592;-71
2022/05/21 11:49:44;;;;;;;4.07;3.67;;;18.20;99.90;;;;;;5047344;28;20262;-71
2022/05/21 11:52:49;;;;;;;5.93;3.90;;;18.00;99.90;;;;;;5046959;28;20254;-71
2022/05/21 11:55:23;;;;;;;3.80;3.50;;;17.70;99.90;;;;;;5047488;28;20258;-71
2022/05/21 11:57:51;;;;;;;5.07;3.70;;;17.70;99.90;;;;;;5047231;28;20301;-71
2022/05/21 12:00:51;;;;;;;4.13;3.83;;;17.60;99.90;;;;;;5047078;28;20716;-71
2022/05/21 12:03:22;;;;;;;5.37;3.87;;;17.30;99.90;;;;;;4985319;28;20221;-71
2022/05/21 12:06:23;;;;;;;7.10;3.80;;;17.30;99.90;;;;;;4985246;28;20195;-71
2022/05/21 12:08:50;;;;;;;3.90;3.50;;;17.30;99.90;;;;;;5028106;28;20199;-71
2022/05/21 12:11:44;;;;;;;3.83;3.53;;;17.20;99.90;;;;;;5046814;28;20266;-71
2022/05/21 12:14:20;;;;;;;4.77;3.70;;;17.10;99.90;;;;;;5046948;28;20227;-71
2022/05/21 12:16:51;;;;;;;4.10;3.43;;;17.00;99.90;;;;;;5047099;28;20588;-71
2022/05/21 12:19:59;;;;;;;5.37;3.47;;;16.90;99.90;;;;;;5047085;28;20286;-71
2022/05/21 12:22:54;;;;;;;6.53;3.07;;;17.00;99.90;;;;;;5046557;28;20226;-71
2022/05/21 12:25:57;;;;;;;3.93;3.10;;;17.00;99.90;;;;;;5033871;28;20204;-71
2022/05/21 12:28:38;;;;;;;4.23;3.40;;;16.90;99.90;;;;;;5050646;28;20290;-71
2022/05/21 12:31:23;;;;;;;4.17;3.27;;;16.90;99.90;;;;;;5050776;28;20246;-71
2022/05/21 12:34:06;;;;;;;3.40;3.10;;;17.00;99.90;;;;;;5050810;28;20652;-71
2022/05/21 12:36:49;;;;;;;4.60;3.33;;;17.00;99.90;;;;;;5049761;28;20254;-72
2022/05/21 12:39:23;;;;;;;3.83;2.80;;;17.30;99.90;;;;;;5050681;28;20258;-72
2022/05/21 12:41:53;;;;;;;3.53;2.50;;;17.40;99.90;;;;;;5050095;28;20204;-71
2022/05/21 12:44:38;;;;;;;3.57;2.40;;;17.50;99.90;;;;;;5041296;28;20201;-71
2022/05/21 12:47:05;;;;;;;2.77;2.40;;;17.80;99.90;;;;;;5035676;28;20204;-72
2022/05/21 12:49:32;;;;;;;9.50;2.97;;;18.10;99.90;;;;;;5050072;28;20200;-72
2022/05/21 12:51:59;;;;;;;2.40;2.00;;;18.10;99.90;;;;;;5050104;28;20223;-71
2022/05/21 12:54:29;;;;;;;2.90;2.40;;;18.10;99.90;;;;;;5050205;28;20211;-72
2022/05/21 12:56:59;;;;;;;4.47;2.33;;;18.10;99.90;;;;;;5050132;28;20235;-71
2022/05/21 12:59:29;;;;;;;5.00;2.07;;;18.30;99.90;;;;;;5049786;28;20751;-71
2022/05/21 13:01:58;;;;;;;3.57;2.30;;;18.50;99.90;;;;;;5049966;28;20227;-72
2022/05/21 13:04:29;;;;;;;3.77;2.10;;;18.60;99.90;;;;;;5049716;28;20204;-72
2022/05/21 13:07:00;;;;;;;4.47;2.90;;;18.80;99.90;;;;;;5049951;28;20196;-71
2022/05/21 13:09:28;;;;;;;2.53;2.33;;;18.80;99.90;;;;;;5049460;28;20201;-71
2022/05/21 13:11:56;;;;;;;2.93;2.10;;;18.60;99.90;;;;;;5049696;28;20299;-71
2022/05/21 13:14:31;;;;;;;3.13;2.27;;;18.40;99.90;;;;;;5050042;28;20231;-72
2022/05/21 13:16:59;;;;;;;11.77;2.53;;;18.40;99.90;;;;;;5049977;28;20269;-72
2022/05/21 13:19:46;;;;;;;6.27;2.47;;;18.60;99.90;;;;;;5049689;28;20275;-72
2022/05/21 13:22:21;;;;;;;4.27;1.90;;;18.80;99.90;;;;;;5049631;28;20200;-72
2022/05/21 13:24:57;;;;;;;1.43;1.13;;;18.70;99.90;;;;;;5049520;28;20227;-71
2022/05/21 13:27:24;;;;;;;3.03;1.70;;;18.70;99.90;;;;;;5049341;28;20253;-72
2022/05/21 13:29:52;;;;;;;3.83;1.60;;;18.80;99.90;;;;;;5049463;28;20471;-72
2022/05/21 13:32:26;;;;;;;2.50;1.70;;;19.00;99.90;;;;;;5049362;28;20212;-72
2022/05/21 13:34:55;;;;;;;12.10;2.30;;;19.10;99.90;;;;;;5049150;28;20565;-72
2022/05/21 13:37:28;;;;;;;3.03;1.40;;;18.90;99.90;;;;;;5048922;28;20212;-72
2022/05/21 13:40:02;;;;;;;2.00;1.33;;;18.80;99.90;;;;;;5049627;28;20266;-73